createdAt,value
2018-11-26T00:04:59.911Z,97.33
2018-11-26T00:10:14.462Z,96.96
2018-11-26T00:15:16.870Z,97.37
2018-11-26T00:20:19.170Z,97.36
2018-11-26T00:25:21.464Z,97.25
2018-11-26T00:30:23.950Z,97.40
2018-11-26T00:35:26.279Z,97.73
2018-11-26T00:40:28.670Z,97.85
2018-11-26T00:45:31.029Z,97.75
2018-11-26T00:50:33.338Z,97.99
2018-11-26T00:55:35.732Z,98.14
2018-11-26T01:00:38.414Z,98.04
2018-11-26T01:05:42.081Z,98.38
2018-11-26T01:10:44.405Z,98.38
2018-11-26T01:15:46.847Z,97.67
2018-11-26T01:20:49.179Z,98.25
2018-11-26T01:25:51.550Z,97.80
2018-11-26T01:30:53.890Z,97.88
2018-11-26T01:35:56.200Z,97.76
2018-11-26T01:40:58.652Z,97.68
2018-11-26T01:46:00.915Z,97.62
2018-11-26T01:51:03.206Z,98.13
2018-11-26T01:56:06.318Z,98.16
2018-11-26T02:01:08.616Z,97.77
2018-11-26T02:06:10.916Z,97.65
2018-11-26T02:11:13.195Z,98.06
2018-11-26T02:16:15.463Z,98.13
2018-11-26T02:21:17.799Z,98.00
2018-11-26T02:26:20.154Z,97.71
2018-11-26T02:31:22.989Z,97.39
2018-11-26T02:36:28.283Z,97.66
2018-11-26T02:41:30.589Z,98.00
2018-11-26T02:46:32.916Z,97.88
2018-11-26T02:51:35.214Z,97.05
2018-11-26T02:56:37.503Z,97.61
2018-11-26T03:01:40.139Z,97.45
2018-11-26T03:06:43.422Z,97.11
2018-11-26T03:11:45.721Z,96.98
2018-11-26T03:16:48.019Z,96.85
2018-11-26T03:21:50.314Z,96.69
2018-11-26T03:26:52.607Z,96.93
2018-11-26T03:31:55.072Z,96.76
2018-11-26T03:36:57.364Z,96.39
2018-11-26T03:41:59.668Z,95.84
2018-11-26T03:47:01.975Z,95.12
2018-11-26T03:52:04.589Z,95.62
2018-11-26T03:57:06.893Z,95.72
2018-11-26T04:02:09.672Z,95.52
2018-11-26T04:07:13.252Z,95.97
2018-11-26T04:12:15.527Z,95.18
2018-11-26T04:17:17.819Z,95.00
2018-11-26T04:22:20.423Z,94.96
2018-11-26T04:27:24.517Z,94.06
2018-11-26T04:32:27.066Z,94.13
2018-11-26T04:37:29.433Z,94.88
2018-11-26T04:42:31.740Z,94.65
2018-11-26T04:47:34.180Z,95.01
2018-11-26T04:52:36.524Z,94.60
2018-11-26T04:57:42.520Z,95.17
2018-11-26T05:02:41.862Z,94.76
2018-11-26T05:07:44.227Z,94.79
2018-11-26T05:12:46.529Z,94.59
2018-11-26T05:17:48.982Z,94.38
2018-11-26T05:22:54.314Z,94.31
2018-11-26T05:27:56.613Z,94.35
2018-11-26T05:32:59.010Z,93.57
2018-11-26T05:38:01.310Z,93.30
2018-11-26T05:43:03.655Z,94.01
2018-11-26T05:48:06.203Z,94.70
2018-11-26T05:53:08.530Z,94.38
2018-11-26T05:58:10.878Z,95.97
2018-11-26T06:03:13.257Z,96.05
2018-11-26T06:08:15.702Z,96.28
2018-11-26T06:13:17.991Z,96.87
2018-11-26T06:18:20.410Z,97.02
2018-11-26T06:23:22.796Z,96.83
2018-11-26T06:28:25.194Z,96.09
2018-11-26T06:33:27.697Z,96.10
2018-11-26T06:38:30.077Z,96.80
2018-11-26T06:43:32.434Z,96.64
2018-11-26T06:48:34.956Z,97.15
2018-11-26T06:53:37.853Z,97.25
2018-11-26T06:58:40.152Z,97.47
2018-11-26T07:03:42.518Z,97.62
2018-11-26T07:08:44.807Z,97.01
2018-11-26T07:13:47.102Z,97.39
2018-11-26T07:18:49.512Z,98.26
2018-11-26T07:23:51.821Z,97.60
2018-11-26T07:28:54.146Z,97.52
2018-11-26T07:33:56.800Z,97.59
2018-11-26T07:38:59.100Z,97.69
2018-11-26T07:44:01.435Z,97.67
2018-11-26T07:49:03.812Z,97.58
2018-11-26T07:54:06.485Z,97.91
2018-11-26T07:59:08.771Z,98.47
2018-11-26T08:04:11.236Z,98.01
2018-11-26T08:09:13.540Z,97.97
2018-11-26T08:14:16.779Z,98.55
2018-11-26T08:19:19.756Z,98.00
2018-11-26T08:24:22.156Z,98.17
2018-11-26T08:29:24.482Z,97.78
2018-11-26T08:34:26.956Z,97.75
2018-11-26T08:39:35.234Z,98.71
2018-11-26T08:44:40.902Z,98.50
2018-11-26T08:49:43.300Z,98.42
2018-11-26T08:54:45.686Z,98.63
2018-11-26T08:59:47.997Z,98.19
2018-11-26T09:04:56.971Z,98.89
2018-11-26T09:09:59.367Z,98.73
2018-11-26T09:15:01.778Z,98.26
2018-11-26T09:20:06.388Z,98.25
2018-11-26T09:25:10.771Z,98.68
2018-11-26T09:30:14.005Z,98.35
2018-11-26T09:35:16.631Z,98.45
2018-11-26T09:40:18.965Z,98.27
2018-11-26T09:45:21.387Z,98.78
2018-11-26T09:50:23.818Z,98.75
2018-11-26T09:55:26.319Z,98.00
2018-11-26T10:00:28.661Z,98.20
2018-11-26T10:05:31.088Z,98.25
2018-11-26T10:10:33.493Z,98.48
2018-11-26T10:15:35.800Z,97.99
2018-11-26T10:20:38.142Z,98.59
2018-11-26T10:25:40.432Z,98.52
2018-11-26T10:30:42.865Z,98.65
2018-11-26T10:35:45.242Z,99.30
2018-11-26T10:40:47.601Z,98.88
2018-11-26T10:45:50.048Z,98.82
2018-11-26T10:50:52.366Z,98.14
2018-11-26T10:55:54.862Z,98.55
2018-11-26T11:01:01.291Z,98.56
2018-11-26T11:06:03.658Z,98.68
2018-11-26T11:11:06.322Z,98.26
2018-11-26T11:16:08.645Z,98.08
2018-11-26T11:21:11.246Z,98.23
2018-11-26T11:26:13.561Z,98.44
2018-11-26T11:31:15.954Z,99.12
2018-11-26T11:36:18.450Z,98.49
2018-11-26T11:41:20.751Z,98.51
2018-11-26T11:46:23.133Z,99.00
2018-11-26T11:51:25.433Z,98.62
2018-11-26T11:56:27.754Z,98.65
2018-11-26T12:01:30.239Z,99.44
2018-11-26T12:06:32.603Z,98.60
2018-11-26T12:11:34.901Z,98.60
2018-11-26T12:16:37.185Z,98.63
2018-11-26T12:21:44.111Z,98.21
2018-11-26T12:26:46.429Z,98.73
2018-11-26T12:31:48.785Z,98.55
2018-11-26T12:36:51.472Z,97.96
2018-11-26T12:41:53.901Z,98.05
2018-11-26T12:46:56.203Z,97.72
2018-11-26T12:51:59.017Z,97.45
2018-11-26T12:57:01.355Z,97.88
2018-11-26T13:02:03.800Z,97.41
2018-11-26T13:07:06.220Z,98.01
2018-11-26T13:12:08.562Z,97.61
2018-11-26T13:17:10.892Z,97.85
2018-11-26T13:22:13.262Z,97.91
2018-11-26T13:27:15.570Z,98.48
2018-11-26T13:32:17.983Z,98.25
2018-11-26T13:37:20.365Z,98.52
2018-11-26T13:42:22.702Z,97.91
2018-11-26T13:47:25.043Z,97.94
2018-11-26T13:52:27.619Z,98.12
2018-11-26T13:57:29.904Z,98.25
2018-11-26T14:02:32.317Z,97.87
2018-11-26T14:07:34.664Z,97.77
2018-11-26T14:12:36.980Z,98.26
2018-11-26T14:17:39.517Z,97.07
2018-11-26T14:22:41.927Z,97.16
2018-11-26T14:27:44.583Z,96.74
2018-11-26T14:32:46.984Z,96.00
2018-11-26T14:37:53.747Z,96.52
2018-11-26T14:42:56.489Z,96.32
2018-11-26T14:47:58.839Z,95.38
2018-11-26T14:53:04.397Z,96.06
2018-11-26T14:58:06.912Z,94.96
2018-11-26T15:03:09.249Z,95.33
2018-11-26T15:08:11.951Z,95.28
2018-11-26T15:13:14.282Z,95.43
2018-11-26T15:18:16.689Z,95.35
2018-11-26T15:23:18.981Z,94.87
2018-11-26T15:28:21.294Z,95.67
2018-11-26T15:33:23.643Z,95.02
2018-11-26T15:38:26.080Z,95.44
2018-11-26T15:43:28.470Z,95.41
2018-11-26T15:48:30.785Z,95.90
2018-11-26T15:53:33.152Z,95.33
2018-11-26T15:58:35.811Z,95.23
2018-11-26T16:03:38.126Z,95.00
2018-11-26T16:08:40.643Z,94.77
2018-11-26T16:13:42.980Z,94.38
2018-11-26T16:18:45.296Z,94.98
2018-11-26T16:23:47.602Z,94.88
2018-11-26T16:28:50.757Z,95.34
2018-11-26T16:33:54.335Z,94.68
2018-11-26T16:38:57.271Z,94.55
2018-11-26T16:43:59.566Z,94.73
2018-11-26T16:49:02.354Z,94.51
2018-11-26T16:54:04.966Z,94.69
2018-11-26T16:59:07.543Z,94.06
2018-11-26T17:04:09.953Z,94.03
2018-11-26T17:09:12.357Z,94.28
2018-11-26T17:14:14.767Z,94.18
2018-11-26T17:19:17.174Z,93.57
2018-11-26T17:24:19.469Z,93.19
2018-11-26T17:29:21.801Z,93.21
2018-11-26T17:34:24.188Z,93.68
2018-11-26T17:39:26.876Z,93.63
2018-11-26T17:44:29.207Z,92.79
2018-11-26T17:49:31.530Z,93.22
2018-11-26T17:54:34.330Z,93.50
2018-11-26T17:59:37.430Z,92.84
2018-11-26T18:04:41.417Z,92.80
2018-11-26T18:09:44.259Z,93.33
2018-11-26T18:14:46.902Z,92.60
2018-11-26T18:19:49.195Z,92.14
2018-11-26T18:24:51.659Z,92.89
2018-11-26T18:29:54.033Z,92.75
2018-11-26T18:34:58.182Z,92.54
2018-11-26T18:40:00.748Z,93.46
2018-11-26T18:45:03.123Z,93.20
2018-11-26T18:50:08.364Z,93.20
2018-11-26T18:55:11.256Z,92.82
2018-11-26T19:00:15.866Z,92.50
2018-11-26T19:05:18.782Z,92.61
2018-11-26T19:10:23.267Z,92.44
2018-11-26T19:15:32.891Z,93.75
2018-11-26T19:20:35.197Z,93.62
2018-11-26T19:25:37.498Z,93.17
2018-11-26T19:30:39.857Z,93.33
2018-11-26T19:35:42.213Z,93.61
2018-11-26T19:40:44.558Z,92.63
2018-11-26T19:45:47.107Z,92.40
2018-11-26T19:50:49.474Z,92.80
2018-11-26T19:55:51.847Z,92.80
2018-11-26T20:00:54.178Z,92.35
2018-11-26T20:06:01.298Z,92.05
2018-11-26T20:11:03.689Z,91.67
2018-11-26T20:16:08.594Z,91.80
2018-11-26T20:21:11.586Z,91.36
2018-11-26T20:26:13.900Z,91.48
2018-11-26T20:31:16.219Z,91.97
2018-11-26T20:36:18.544Z,91.63
2018-11-26T20:41:20.915Z,91.21
2018-11-26T20:46:23.698Z,91.73
2018-11-26T20:51:26.340Z,91.16
2018-11-26T20:56:28.754Z,91.51
2018-11-26T21:01:31.090Z,91.61
2018-11-26T21:06:33.517Z,91.37
2018-11-26T21:11:36.289Z,91.35
2018-11-26T21:16:38.579Z,92.01
2018-11-26T21:21:40.911Z,92.40
2018-11-26T21:26:43.257Z,92.70
2018-11-26T21:31:45.660Z,93.29
2018-11-26T21:36:48.012Z,93.46
2018-11-26T21:41:50.438Z,93.68
2018-11-26T21:46:53.052Z,93.89
2018-11-26T21:51:55.497Z,93.62
2018-11-26T21:56:57.972Z,93.38
2018-11-26T22:02:01.350Z,92.74
2018-11-26T22:07:04.473Z,92.48
2018-11-26T22:12:06.859Z,92.98
2018-11-26T22:17:09.148Z,91.97
2018-11-26T22:22:11.446Z,92.04
2018-11-26T22:27:13.802Z,92.04
2018-11-26T22:32:16.149Z,91.18
2018-11-26T22:37:18.547Z,91.01
2018-11-26T22:42:20.894Z,91.07
2018-11-26T22:47:23.297Z,90.90
2018-11-26T22:52:25.640Z,91.39
2018-11-26T22:57:28.006Z,90.76
2018-11-26T23:02:30.365Z,91.04
2018-11-26T23:07:32.678Z,91.18
2018-11-26T23:12:35.106Z,90.79
2018-11-26T23:17:37.443Z,90.92
2018-11-26T23:22:39.980Z,91.26
2018-11-26T23:27:42.409Z,90.49
2018-11-26T23:32:48.842Z,91.38
2018-11-26T23:37:51.153Z,91.19
2018-11-26T23:42:53.704Z,91.32
2018-11-26T23:47:56.082Z,91.18
2018-11-26T23:52:58.386Z,91.54
2018-11-26T23:58:00.729Z,91.56
